createdAt,value
2023-04-14T00:00:15.618Z,79.90
2023-04-14T00:02:51.499Z,79.80
2023-04-14T00:05:32.462Z,80.00
2023-04-14T00:08:07.849Z,79.30
2023-04-14T00:10:43.025Z,79.20
2023-04-14T00:13:18.770Z,78.60
2023-04-14T00:15:54.323Z,78.20
2023-04-14T00:18:29.784Z,77.50
2023-04-14T00:21:07.566Z,76.80
2023-04-14T00:23:42.944Z,76.90
2023-04-14T00:26:18.808Z,76.30
2023-04-14T00:28:55.676Z,76.40
2023-04-14T00:31:30.939Z,75.80
2023-04-14T00:34:08.818Z,74.90
2023-04-14T00:36:46.755Z,75.00
2023-04-14T00:39:21.692Z,75.40
2023-04-14T00:41:56.620Z,75.30
2023-04-14T00:44:32.064Z,75.70
2023-04-14T00:47:07.791Z,74.90
2023-04-14T00:49:43.497Z,75.00
2023-04-14T00:52:21.620Z,74.50
2023-04-14T00:54:58.876Z,74.20
2023-04-14T00:57:35.495Z,74.50
2023-04-14T01:00:11.704Z,74.40
2023-04-14T01:02:48.215Z,74.50
2023-04-14T01:05:26.566Z,74.30
2023-04-14T01:08:04.861Z,75.00
2023-04-14T01:10:46.464Z,75.00
2023-04-14T01:13:35.271Z,75.70
2023-04-14T01:16:19.779Z,76.30
2023-04-14T01:19:03.532Z,76.70
2023-04-14T01:21:51.263Z,77.20
2023-04-14T01:24:55.760Z,77.80
2023-04-14T01:27:45.448Z,77.90
2023-04-14T01:30:52.040Z,77.60
2023-04-14T01:33:31.364Z,77.50
2023-04-14T01:36:11.853Z,78.10
2023-04-14T01:38:52.282Z,78.10
2023-04-14T01:41:31.423Z,78.10
2023-04-14T01:44:08.882Z,78.50
2023-04-14T01:46:45.860Z,78.30
2023-04-14T01:49:26.943Z,78.40
2023-04-14T01:52:02.462Z,77.90
2023-04-14T01:54:40.199Z,78.10
2023-04-14T01:57:17.361Z,78.10
2023-04-14T01:59:57.266Z,77.30
2023-04-14T02:02:33.807Z,76.80
2023-04-14T02:05:14.698Z,75.30
2023-04-14T02:07:53.041Z,74.30
2023-04-14T02:10:30.160Z,73.90
2023-04-14T02:13:07.170Z,73.40
2023-04-14T02:15:43.331Z,73.10
2023-04-14T02:18:18.831Z,72.20
2023-04-14T02:20:58.876Z,71.20
2023-04-14T02:23:34.942Z,72.10
2023-04-14T02:26:17.624Z,71.60
2023-04-14T02:28:58.285Z,72.40
2023-04-14T02:31:38.609Z,73.40
2023-04-14T02:34:16.429Z,71.70
2023-04-14T02:36:57.229Z,72.00
2023-04-14T02:39:36.267Z,73.90
2023-04-14T02:42:19.759Z,73.90
2023-04-14T02:45:01.157Z,74.80
2023-04-14T02:47:41.675Z,75.10
2023-04-14T02:50:19.320Z,75.30
2023-04-14T02:53:09.415Z,76.20
2023-04-14T02:55:46.505Z,76.30
2023-04-14T02:58:23.054Z,75.80
2023-04-14T03:00:59.386Z,75.50
2023-04-14T03:03:38.904Z,76.00
2023-04-14T03:06:19.522Z,76.20
2023-04-14T03:08:58.636Z,75.90
2023-04-14T03:11:37.270Z,75.90
2023-04-14T03:14:14.077Z,75.80
2023-04-14T03:16:51.770Z,75.80
2023-04-14T03:19:32.388Z,75.20
2023-04-14T03:22:08.993Z,75.30
2023-04-14T03:24:49.281Z,75.60
2023-04-14T03:27:29.631Z,75.10
2023-04-14T03:30:09.488Z,74.60
2023-04-14T03:32:48.170Z,73.90
2023-04-14T03:35:25.648Z,72.60
2023-04-14T03:38:04.124Z,73.50
2023-04-14T03:40:45.857Z,73.90
2023-04-14T03:43:24.373Z,73.80
2023-04-14T03:46:07.739Z,74.20
2023-04-14T03:48:46.034Z,74.20
2023-04-14T03:51:28.753Z,74.10
2023-04-14T03:54:04.794Z,72.90
2023-04-14T03:56:43.061Z,72.70
2023-04-14T03:59:21.362Z,73.00
2023-04-14T04:02:00.000Z,72.30
2023-04-14T04:04:37.444Z,71.60
2023-04-14T04:07:16.508Z,71.10
2023-04-14T04:09:53.877Z,71.60
2023-04-14T04:12:32.536Z,72.20
2023-04-14T04:15:11.311Z,72.30
2023-04-14T04:17:48.774Z,72.40
2023-04-14T04:20:26.768Z,73.10
2023-04-14T04:23:06.063Z,73.40
2023-04-14T04:25:43.051Z,73.40
2023-04-14T04:28:33.395Z,73.20
2023-04-14T04:31:13.926Z,73.10
2023-04-14T04:33:52.003Z,72.80
2023-04-14T04:36:28.368Z,72.30
2023-04-14T04:39:03.953Z,72.30
2023-04-14T04:41:44.451Z,72.70
2023-04-14T04:44:22.037Z,72.30
2023-04-14T04:46:59.428Z,72.00
2023-04-14T04:49:35.677Z,72.30
2023-04-14T04:52:11.369Z,73.50
2023-04-14T04:54:47.548Z,72.70
2023-04-14T04:57:22.807Z,72.90
2023-04-14T05:00:00.364Z,73.70
2023-04-14T05:02:36.447Z,73.50
2023-04-14T05:05:13.761Z,74.20
2023-04-14T05:07:49.053Z,74.70
2023-04-14T05:10:25.301Z,74.90
2023-04-14T05:13:00.590Z,75.10
2023-04-14T05:15:38.184Z,74.90
2023-04-14T05:18:13.990Z,74.90
2023-04-14T05:20:49.471Z,75.00
2023-04-14T05:23:24.551Z,75.50
2023-04-14T05:26:20.377Z,75.60
2023-04-14T05:29:01.023Z,76.00
2023-04-14T05:31:39.338Z,76.20
2023-04-14T05:34:15.085Z,76.20
2023-04-14T05:36:50.860Z,76.60
2023-04-14T05:39:26.049Z,76.50
2023-04-14T05:42:01.444Z,76.60
2023-04-14T05:44:36.671Z,76.70
2023-04-14T05:47:14.081Z,76.90
2023-04-14T05:49:49.811Z,76.80
2023-04-14T05:52:25.238Z,77.00
2023-04-14T05:55:00.386Z,77.30
2023-04-14T05:57:36.605Z,77.40
2023-04-14T06:00:14.062Z,77.00
2023-04-14T06:02:51.738Z,76.80
2023-04-14T06:05:28.155Z,76.80
2023-04-14T06:08:03.926Z,76.60
2023-04-14T06:10:40.475Z,76.40
2023-04-14T06:13:15.562Z,76.80
2023-04-14T06:15:53.894Z,76.30
2023-04-14T06:18:31.470Z,76.60
2023-04-14T06:21:09.380Z,76.60
2023-04-14T06:23:44.401Z,76.40
2023-04-14T06:26:19.412Z,76.60
2023-04-14T06:28:55.319Z,76.70
2023-04-14T06:31:31.012Z,76.80
2023-04-14T06:34:08.409Z,76.60
2023-04-14T06:36:44.046Z,76.30
2023-04-14T06:39:19.360Z,76.50
2023-04-14T06:41:54.769Z,76.60
2023-04-14T06:44:30.830Z,76.60
2023-04-14T06:47:07.216Z,77.00
2023-04-14T06:49:44.900Z,77.10
2023-04-14T06:52:20.973Z,77.10
2023-04-14T06:54:56.243Z,77.20
2023-04-14T06:57:31.575Z,77.50
2023-04-14T07:00:09.122Z,77.50
2023-04-14T07:02:44.733Z,77.50
2023-04-14T07:05:24.940Z,77.50
2023-04-14T07:08:00.757Z,77.40
2023-04-14T07:10:36.547Z,77.40
2023-04-14T07:13:11.975Z,77.30
2023-04-14T07:15:51.940Z,77.40
2023-04-14T07:18:27.263Z,77.20
2023-04-14T07:21:05.207Z,77.30
2023-04-14T07:23:41.470Z,77.20
2023-04-14T07:26:16.575Z,77.10
2023-04-14T07:28:51.824Z,77.20
2023-04-14T07:31:27.739Z,77.10
2023-04-14T07:34:03.683Z,77.20
2023-04-14T07:36:41.168Z,77.30
2023-04-14T07:39:17.129Z,77.10
2023-04-14T07:41:52.909Z,77.20
2023-04-14T07:44:28.255Z,77.10
2023-04-14T07:47:03.492Z,76.90
2023-04-14T07:49:38.685Z,77.10
2023-04-14T07:52:16.429Z,77.20
2023-04-14T07:54:52.346Z,77.10
2023-04-14T07:57:27.520Z,77.10
2023-04-14T08:00:02.844Z,77.20
2023-04-14T08:02:47.977Z,77.30
2023-04-14T08:05:24.050Z,77.30
2023-04-14T08:08:01.143Z,77.00
2023-04-14T08:10:37.038Z,77.10
2023-04-14T08:13:13.244Z,77.10
2023-04-14T08:15:48.510Z,77.10
2023-04-14T08:18:24.037Z,76.90
2023-04-14T08:20:59.268Z,77.20
2023-04-14T08:23:36.949Z,77.10
2023-04-14T08:26:13.378Z,77.10
2023-04-14T08:28:48.459Z,77.10
2023-04-14T08:31:23.474Z,77.10
2023-04-14T08:33:59.616Z,77.10
2023-04-14T08:36:35.162Z,77.20
2023-04-14T08:39:12.984Z,77.20
2023-04-14T08:41:49.013Z,76.70
2023-04-14T08:44:24.940Z,77.00
2023-04-14T08:47:01.227Z,77.00
2023-04-14T08:49:45.369Z,77.00
2023-04-14T08:52:24.726Z,77.00
2023-04-14T08:55:06.321Z,77.10
2023-04-14T08:57:48.540Z,77.30
2023-04-14T09:00:24.702Z,77.40
2023-04-14T09:03:06.018Z,77.60
2023-04-14T09:05:42.638Z,77.40
2023-04-14T09:08:21.099Z,77.90
2023-04-14T09:10:58.874Z,77.80
2023-04-14T09:13:36.152Z,78.00
2023-04-14T09:16:12.913Z,78.40
2023-04-14T09:18:48.636Z,78.20
2023-04-14T09:21:49.700Z,78.20
2023-04-14T09:24:45.862Z,78.40
2023-04-14T09:27:29.057Z,78.60
2023-04-14T09:30:04.459Z,78.70
2023-04-14T09:32:42.974Z,78.70
2023-04-14T09:35:18.473Z,78.50
2023-04-14T09:37:54.875Z,78.30
2023-04-14T09:41:02.173Z,78.40
2023-04-14T09:43:48.116Z,78.30
2023-04-14T09:46:23.591Z,77.50
2023-04-14T09:49:02.083Z,77.90
2023-04-14T09:51:43.597Z,77.80
2023-04-14T09:54:26.802Z,77.70
2023-04-14T09:57:03.014Z,77.30
2023-04-14T09:59:49.150Z,76.40
2023-04-14T10:02:28.798Z,76.80
2023-04-14T10:05:11.362Z,76.40
2023-04-14T10:07:47.034Z,76.10
2023-04-14T10:10:23.105Z,76.10
2023-04-14T10:12:59.357Z,76.10
2023-04-14T10:15:38.652Z,76.50
2023-04-14T10:18:14.329Z,77.20
2023-04-14T10:20:50.875Z,77.80
2023-04-14T10:23:26.785Z,78.30
2023-04-14T10:26:02.606Z,78.50
2023-04-14T10:28:42.564Z,79.00
2023-04-14T10:31:23.791Z,78.90
2023-04-14T10:33:59.152Z,79.00
2023-04-14T10:36:38.417Z,79.20
2023-04-14T10:39:16.123Z,79.50
2023-04-14T10:41:53.312Z,79.90
2023-04-14T10:44:33.124Z,80.10
2023-04-14T10:47:12.717Z,80.10
2023-04-14T10:49:52.914Z,80.10
2023-04-14T10:52:39.767Z,80.20
2023-04-14T10:55:15.547Z,80.30
2023-04-14T10:57:51.676Z,80.30
2023-04-14T11:00:34.232Z,80.30
2023-04-14T11:03:15.656Z,80.30
2023-04-14T11:05:55.779Z,80.30
2023-04-14T11:08:32.049Z,80.30
2023-04-14T11:11:07.902Z,80.30
2023-04-14T11:13:44.420Z,80.30
2023-04-14T11:16:31.185Z,80.30
2023-04-14T11:19:20.643Z,80.30
2023-04-14T11:21:56.036Z,80.30
2023-04-14T11:24:33.223Z,80.30
2023-04-14T11:27:10.509Z,80.30
2023-04-14T11:29:45.768Z,80.30
2023-04-14T11:32:21.241Z,80.30
2023-04-14T11:35:00.370Z,80.30
2023-04-14T11:37:35.654Z,80.30
2023-04-14T11:40:12.663Z,80.30
2023-04-14T11:42:50.463Z,80.30
2023-04-14T11:45:27.077Z,80.30
2023-04-14T11:48:07.356Z,80.30
2023-04-14T11:50:47.528Z,80.30
2023-04-14T11:53:23.785Z,80.30
2023-04-14T11:56:01.121Z,80.30
2023-04-14T11:58:36.623Z,80.30
2023-04-14T12:01:15.866Z,80.30
2023-04-14T12:03:51.736Z,80.30
2023-04-14T12:06:32.194Z,80.30
2023-04-14T12:09:14.660Z,80.30
2023-04-14T12:11:59.664Z,80.30
2023-04-14T12:14:34.910Z,80.30
2023-04-14T12:17:11.653Z,80.30
2023-04-14T12:19:47.102Z,80.30
2023-04-14T12:22:31.733Z,80.30
2023-04-14T12:25:16.335Z,80.20
2023-04-14T12:27:57.349Z,80.30
2023-04-14T12:30:32.700Z,80.20
2023-04-14T12:33:15.125Z,80.20
2023-04-14T12:35:50.586Z,80.30
2023-04-14T12:38:31.473Z,80.20
2023-04-14T12:41:07.131Z,80.20
2023-04-14T12:43:44.320Z,80.20
2023-04-14T12:46:29.685Z,80.20
2023-04-14T12:49:05.427Z,80.10
2023-04-14T12:51:45.030Z,80.00
2023-04-14T12:54:23.024Z,80.00
2023-04-14T12:56:58.853Z,80.20
2023-04-14T12:59:34.626Z,80.10
2023-04-14T13:02:12.062Z,80.10
2023-04-14T13:04:47.578Z,80.00
2023-04-14T13:07:23.385Z,80.00
2023-04-14T13:10:01.794Z,80.00
2023-04-14T13:12:37.340Z,79.90
2023-04-14T13:16:09.491Z,79.60
2023-04-14T13:18:09.010Z,79.80
2023-04-14T13:20:44.787Z,79.80
2023-04-14T13:23:20.226Z,79.80
2023-04-14T13:25:57.993Z,79.80
2023-04-14T13:28:33.912Z,79.90
2023-04-14T13:31:09.820Z,80.00
2023-04-14T13:33:44.950Z,79.90
2023-04-14T13:36:20.468Z,80.00
2023-04-14T13:38:56.374Z,80.00
2023-04-14T13:41:35.714Z,80.00
2023-04-14T13:44:12.877Z,80.00
2023-04-14T13:46:51.141Z,80.00
2023-04-14T13:49:27.251Z,80.10
2023-04-14T13:52:02.942Z,80.10
2023-04-14T13:54:38.432Z,80.10
2023-04-14T13:57:16.612Z,79.90
2023-04-14T13:59:52.322Z,80.00
2023-04-14T14:02:27.830Z,79.80
2023-04-14T14:05:03.387Z,79.80
2023-04-14T14:07:38.471Z,79.90
2023-04-14T14:10:14.696Z,80.00
2023-04-14T14:12:52.776Z,80.00
2023-04-14T14:15:28.083Z,79.90
2023-04-14T14:18:03.262Z,79.80
2023-04-14T14:20:39.058Z,79.80
2023-04-14T14:23:14.681Z,80.00
2023-04-14T14:25:50.319Z,80.10
2023-04-14T14:28:28.003Z,80.00
2023-04-14T14:31:04.962Z,79.90
2023-04-14T14:33:41.817Z,79.80
2023-04-14T14:36:17.322Z,79.80
2023-04-14T14:38:52.998Z,80.10
2023-04-14T14:41:29.375Z,80.10
2023-04-14T14:44:07.443Z,79.90
2023-04-14T14:46:43.438Z,80.10
2023-04-14T14:49:18.782Z,80.20
2023-04-14T14:51:54.875Z,80.10
2023-04-14T14:54:31.474Z,80.20
2023-04-14T14:57:06.882Z,80.10
2023-04-14T14:59:45.009Z,80.20
2023-04-14T15:02:21.303Z,80.20
2023-04-14T15:04:56.973Z,80.30
2023-04-14T15:07:31.993Z,80.30
2023-04-14T15:10:07.278Z,80.20
2023-04-14T15:12:43.193Z,80.30
2023-04-14T15:15:22.765Z,80.30
2023-04-14T15:17:59.207Z,80.30
2023-04-14T15:20:34.254Z,80.30
2023-04-14T15:23:10.343Z,80.30
2023-04-14T15:25:45.576Z,80.30
2023-04-14T15:28:20.631Z,80.30
2023-04-14T15:30:58.309Z,80.20
2023-04-14T15:33:34.197Z,80.20
2023-04-14T15:36:10.186Z,80.20
2023-04-14T15:38:46.165Z,80.10
2023-04-14T15:41:22.150Z,80.20
2023-04-14T15:43:59.545Z,80.00
2023-04-14T15:46:37.689Z,80.00
2023-04-14T15:49:13.288Z,80.10
2023-04-14T15:51:49.082Z,80.10
2023-04-14T15:54:25.275Z,80.00
2023-04-14T15:57:00.778Z,79.90
2023-04-14T15:59:36.097Z,79.90
2023-04-14T16:02:13.767Z,79.90
2023-04-14T16:04:49.367Z,79.80
2023-04-14T16:07:24.626Z,80.00
2023-04-14T16:09:59.638Z,79.80
2023-04-14T16:12:35.008Z,79.60
2023-04-14T16:15:14.135Z,79.50
2023-04-14T16:17:52.778Z,79.70
2023-04-14T16:20:27.762Z,79.90
2023-04-14T16:23:02.979Z,79.80
2023-04-14T16:25:38.577Z,79.50
2023-04-14T16:28:13.991Z,79.40
2023-04-14T16:30:49.488Z,79.40
2023-04-14T16:33:27.251Z,79.60
2023-04-14T16:36:07.855Z,79.50
2023-04-14T16:38:43.398Z,79.30
2023-04-14T16:41:18.580Z,79.20
2023-04-14T16:43:53.725Z,79.20
2023-04-14T16:46:30.789Z,79.30
2023-04-14T16:49:09.973Z,79.50
2023-04-14T16:51:46.138Z,79.40
2023-04-14T16:54:21.312Z,79.10
2023-04-14T16:56:56.901Z,79.40
2023-04-14T16:59:32.432Z,79.40
2023-04-14T17:02:08.181Z,79.40
2023-04-14T17:04:46.013Z,79.80
2023-04-14T17:07:25.905Z,79.70
2023-04-14T17:10:06.623Z,79.70
2023-04-14T17:12:48.794Z,79.80
2023-04-14T17:15:25.265Z,79.50
2023-04-14T17:18:00.844Z,79.60
2023-04-14T17:20:39.199Z,79.40
2023-04-14T17:23:14.736Z,79.50
2023-04-14T17:25:51.227Z,79.60
2023-04-14T17:28:35.819Z,79.50
2023-04-14T17:31:18.576Z,79.70
2023-04-14T17:34:04.650Z,79.60
2023-04-14T17:36:46.728Z,79.70
2023-04-14T17:39:29.072Z,79.60
2023-04-14T17:42:05.474Z,79.60
2023-04-14T17:44:46.301Z,79.60
2023-04-14T17:47:26.433Z,79.80
2023-04-14T17:50:17.619Z,79.50
2023-04-14T17:52:56.768Z,79.60
2023-04-14T17:55:32.285Z,79.60
2023-04-14T17:58:07.879Z,79.30
2023-04-14T18:00:47.879Z,79.50
2023-04-14T18:03:25.415Z,79.40
2023-04-14T18:06:03.388Z,79.50
2023-04-14T18:08:42.134Z,79.80
2023-04-14T18:11:17.861Z,79.60
2023-04-14T18:13:55.392Z,79.70
2023-04-14T18:16:36.591Z,79.90
2023-04-14T18:19:13.930Z,79.90
2023-04-14T18:21:49.411Z,79.80
2023-04-14T18:29:43.744Z,79.90
2023-04-14T18:32:20.827Z,79.80
2023-04-14T18:34:56.380Z,80.00
2023-04-14T18:37:31.620Z,79.90
2023-04-14T18:40:09.591Z,80.00
2023-04-14T18:42:44.983Z,79.80
2023-04-14T18:45:20.457Z,80.00
2023-04-14T18:47:55.935Z,80.00
2023-04-14T18:50:31.135Z,80.00
2023-04-14T18:53:07.148Z,80.00
2023-04-14T18:55:46.355Z,80.00
2023-04-14T18:58:22.075Z,80.20
2023-04-14T19:00:57.283Z,80.10
2023-04-14T19:03:33.341Z,80.10
2023-04-14T19:06:09.038Z,80.20
2023-04-14T19:08:44.268Z,80.10
2023-04-14T19:11:22.232Z,80.10
2023-04-14T19:13:58.206Z,80.20
2023-04-14T19:16:33.748Z,80.10
2023-04-14T19:19:10.000Z,80.20
2023-04-14T19:21:45.193Z,80.10
2023-04-14T19:24:21.608Z,80.20
2023-04-14T19:26:59.999Z,80.20
2023-04-14T19:29:35.238Z,80.30
2023-04-14T19:32:10.654Z,80.20
2023-04-14T19:34:46.512Z,80.20
2023-04-14T19:37:21.746Z,80.10
2023-04-14T19:39:57.172Z,80.20
2023-04-14T19:42:34.932Z,80.10
2023-04-14T19:45:11.910Z,80.10
2023-04-14T19:47:47.022Z,80.20
2023-04-14T19:50:24.285Z,80.30
2023-04-14T19:52:59.518Z,80.30
2023-04-14T19:55:35.863Z,80.30
2023-04-14T19:58:14.456Z,80.20
2023-04-14T20:00:50.541Z,80.20
2023-04-14T20:03:26.388Z,80.20
2023-04-14T20:06:08.903Z,80.10
2023-04-14T20:08:45.486Z,80.10
2023-04-14T20:11:21.951Z,80.00
2023-04-14T20:14:09.801Z,80.20
2023-04-14T20:16:45.751Z,80.30
2023-04-14T20:19:20.708Z,80.10
2023-04-14T20:21:58.882Z,80.00
2023-04-14T20:24:34.426Z,80.30
2023-04-14T20:27:13.448Z,80.30
2023-04-14T20:29:52.871Z,80.30
2023-04-14T20:32:29.457Z,80.30
2023-04-14T20:35:04.985Z,80.30
2023-04-14T20:37:40.730Z,80.30
2023-04-14T20:40:17.642Z,80.30
2023-04-14T20:42:52.887Z,80.30
2023-04-14T20:45:31.564Z,80.30
2023-04-14T20:48:07.820Z,80.30
2023-04-14T20:50:43.238Z,80.20
2023-04-14T20:53:18.771Z,80.10
2023-04-14T20:55:54.505Z,80.10
2023-04-14T20:58:30.051Z,79.70
2023-04-14T21:01:08.885Z,79.50
2023-04-14T21:03:44.169Z,79.40
2023-04-14T21:06:19.810Z,79.20
2023-04-14T21:08:55.717Z,78.80
2023-04-14T21:11:30.860Z,78.80
2023-04-14T21:15:36.895Z,78.50
2023-04-14T21:17:03.857Z,78.30
2023-04-14T21:19:39.392Z,78.10
2023-04-14T21:22:14.592Z,77.90
2023-04-14T21:24:51.334Z,77.40
2023-04-14T21:27:26.755Z,77.00
2023-04-14T21:30:02.441Z,76.50
2023-04-14T21:32:41.493Z,76.20
2023-04-14T21:35:16.770Z,75.80
2023-04-14T21:37:52.247Z,75.30
2023-04-14T21:40:28.368Z,74.90
2023-04-14T21:43:03.418Z,74.70
2023-04-14T21:45:38.710Z,74.20
2023-04-14T21:48:16.699Z,74.10
2023-04-14T21:50:52.457Z,73.80
2023-04-14T21:53:27.863Z,73.00
2023-04-14T21:56:05.365Z,72.60
2023-04-14T21:58:47.321Z,72.00
2023-04-14T22:01:48.543Z,72.20
2023-04-14T22:04:36.658Z,72.30
2023-04-14T22:07:12.430Z,72.10
2023-04-14T22:09:48.551Z,72.10
2023-04-14T22:12:24.574Z,71.30
2023-04-14T22:15:00.743Z,71.30
2023-04-14T22:17:36.465Z,70.60
2023-04-14T22:20:15.601Z,70.60
2023-04-14T22:22:51.512Z,71.00
2023-04-14T22:25:26.685Z,70.90
2023-04-14T22:28:02.131Z,70.50
2023-04-14T22:30:38.829Z,70.50
2023-04-14T22:33:14.474Z,69.00
2023-04-14T22:35:51.992Z,68.80
2023-04-14T22:38:27.289Z,69.60
2023-04-14T22:41:02.601Z,70.40
2023-04-14T22:43:38.209Z,70.60
2023-04-14T22:46:15.920Z,70.40
2023-04-14T22:48:51.134Z,69.90
2023-04-14T22:51:28.964Z,68.80
2023-04-14T22:54:04.722Z,68.70
2023-04-14T22:56:42.130Z,69.10
2023-04-14T22:59:18.423Z,68.20
2023-04-14T23:01:54.169Z,67.90
2023-04-14T23:04:30.869Z,67.60
2023-04-14T23:07:08.949Z,68.00
2023-04-14T23:09:44.035Z,67.30
2023-04-14T23:12:19.631Z,68.20
2023-04-14T23:14:55.138Z,68.00
2023-04-14T23:17:31.893Z,67.50
2023-04-14T23:20:07.347Z,67.20
2023-04-14T23:22:45.356Z,67.00
2023-04-14T23:25:21.262Z,66.40
2023-04-14T23:27:56.325Z,66.20
2023-04-14T23:30:31.663Z,65.50
2023-04-14T23:33:07.028Z,65.60
2023-04-14T23:35:44.617Z,64.90
2023-04-14T23:38:22.300Z,62.70
2023-04-14T23:41:00.437Z,63.70
2023-04-14T23:43:36.186Z,63.70
2023-04-14T23:46:12.323Z,62.80
2023-04-14T23:48:47.633Z,63.70
2023-04-14T23:51:24.695Z,62.40
2023-04-14T23:54:03.599Z,62.60
2023-04-14T23:56:39.643Z,61.60
2023-04-14T23:59:15.114Z,60.90
